Time;durP1;ratioP1;P1;durP2;ratioP2;P2;SDS_P1;SDS_P2;PMS_P1;PMS_P2;Temp;Humidity;BMP_temperature;BMP_pressure;BME280_temperature;BME280_humidity;BME280_pressure;Samples;Min_cycle;Max_cycle;Signal;HPM_P1;HPM_P2
2022/02/01 00:00:44;;;;;;;15.48;5.00;;;7.00;99.90;;;7.18;66.30;102062.38;5072692;28;20055;-62
2022/02/01 00:03:16;;;;;;;14.45;5.18;;;7.00;99.90;;;7.42;66.47;102068.31;5073161;28;20083;-62
2022/02/01 00:05:52;;;;;;;16.17;5.43;;;7.20;99.90;;;7.40;66.65;102069.09;5072964;28;20110;-62
2022/02/01 00:08:30;;;;;;;17.08;5.60;;;7.20;99.90;;;7.37;66.93;102069.94;5072655;28;20082;-63
2022/02/01 00:11:17;;;;;;;13.32;5.03;;;7.20;99.90;;;7.41;67.59;102061.28;5070949;28;20094;-62
2022/02/01 00:13:56;;;;;;;18.98;5.00;;;7.20;99.90;;;7.48;67.59;102052.69;5072660;28;20444;-60
2022/02/01 00:33:34;;;;;;;23.60;6.40;;;7.40;99.90;;;7.63;71.02;102068.88;5070899;28;20387;-61
2022/02/01 00:36:08;;;;;;;28.55;6.82;;;7.40;99.90;;;7.60;71.19;102074.06;5072082;28;20621;-62
2022/02/01 00:38:47;;;;;;;26.10;5.85;;;7.40;99.90;;;7.67;71.54;102060.22;5072332;28;20048;-62
2022/02/01 00:41:17;;;;;;;33.90;6.13;;;7.50;99.90;;;7.71;71.52;102085.78;5071994;28;20053;-62
2022/02/01 00:43:45;;;;;;;26.63;5.78;;;7.50;99.90;;;7.67;71.79;102114.59;5071830;28;20052;-61
2022/02/01 00:46:14;;;;;;;26.38;6.55;;;7.50;99.90;;;7.78;71.87;102100.00;5071738;28;20044;-63
2022/02/01 00:48:42;;;;;;;24.88;6.68;;;7.50;99.90;;;7.63;71.42;102083.78;5072051;28;20102;-62
2022/02/01 00:51:12;;;;;;;25.30;6.10;;;7.50;99.90;;;7.24;72.11;102062.50;5071610;28;20052;-61
2022/02/01 00:53:42;;;;;;;21.85;5.70;;;7.20;99.90;;;7.29;72.52;102039.88;5070547;28;20056;-62
2022/02/01 00:56:14;;;;;;;25.17;5.63;;;7.10;99.90;;;7.30;73.19;102010.06;5071735;28;20036;-61
2022/02/01 00:58:45;;;;;;;21.83;5.30;;;7.10;99.90;;;7.35;72.89;101987.41;5071966;28;20056;-61
2022/02/01 01:01:14;;;;;;;12.45;5.57;;;7.10;99.90;;;6.59;72.54;101884.50;5071631;28;20422;-61
2022/02/01 01:03:44;;;;;;;16.02;5.18;;;7.10;99.90;;;6.99;72.34;101984.66;5071558;28;20044;-61
2022/02/01 01:06:13;;;;;;;13.63;5.35;;;7.00;99.90;;;7.16;71.71;102032.50;5071864;28;20044;-61
2022/02/01 01:08:43;;;;;;;14.38;5.60;;;7.00;99.90;;;7.14;71.03;102024.53;5071513;28;20350;-61
2022/02/01 01:11:13;;;;;;;11.55;4.65;;;7.00;99.90;;;7.16;70.95;102020.22;5071298;28;20062;-62
2022/02/01 01:14:43;;;;;;;14.43;5.47;;;7.00;99.90;;;7.24;70.60;102025.69;5071800;28;20052;-62
2022/02/01 01:17:35;;;;;;;21.33;5.43;;;7.00;99.90;;;7.23;70.34;102003.75;5070301;28;20072;-62
2022/02/01 01:45:06;;;;;;;17.23;5.70;;;7.60;99.90;;;7.77;71.84;102045.53;5075627;28;20036;-61
2022/02/01 01:53:16;;;;;;;19.85;6.05;;;7.60;99.90;;;7.64;72.31;102041.72;5075138;28;20421;-61
2022/02/01 01:55:48;;;;;;;29.95;7.03;;;7.50;99.90;;;7.48;72.93;102049.16;5075373;28;20467;-62
2022/02/01 01:58:18;;;;;;;23.42;6.28;;;7.30;99.90;;;7.42;72.86;102034.09;5074030;28;20114;-61
2022/02/01 02:01:12;;;;;;;21.88;6.85;;;7.30;99.90;;;7.57;72.55;102029.22;5075362;28;20041;-61
2022/02/01 02:03:43;;;;;;;19.85;6.40;;;7.40;99.90;;;7.53;72.54;102024.72;5075240;28;20074;-62
2022/02/01 02:06:12;;;;;;;23.13;7.18;;;7.40;99.90;;;7.60;72.74;102020.53;5075131;28;20196;-61
2022/02/01 02:08:43;;;;;;;22.25;6.82;;;7.40;99.90;;;7.75;72.78;102000.75;5073835;28;20470;-61
2022/02/01 02:11:16;;;;;;;23.55;6.40;;;7.50;99.90;;;7.73;72.76;102001.53;5075083;28;20052;-61
2022/02/01 02:16:40;;;;;;;22.25;6.75;;;7.60;99.90;;;7.08;72.57;101907.75;5074963;28;20040;-61
2022/02/01 02:19:10;;;;;;;21.88;7.30;;;7.60;99.90;;;7.70;72.96;102026.09;5075091;28;20043;-61
2022/02/01 02:21:40;;;;;;;26.23;6.85;;;7.60;99.90;;;7.74;72.99;102022.66;5074799;28;20044;-61
2022/02/01 02:24:09;;;;;;;17.55;6.45;;;7.60;99.90;;;7.82;72.86;102020.22;5074844;28;20048;-62
2022/02/01 02:26:38;;;;;;;23.45;6.70;;;7.70;99.90;;;7.88;72.86;102016.00;5073518;28;20072;-61
2022/02/01 02:29:06;;;;;;;19.30;6.90;;;7.70;99.90;;;7.99;72.58;102005.72;5074596;28;20067;-61
2022/02/01 02:31:37;;;;;;;23.98;6.85;;;7.80;99.90;;;8.15;71.94;102003.47;5074419;28;20055;-61
2022/02/01 02:34:09;;;;;;;23.35;6.15;;;7.90;99.90;;;7.89;73.12;101990.53;5074506;28;20044;-62
2022/02/01 02:36:44;;;;;;;23.58;6.57;;;7.80;99.90;;;7.99;72.17;101985.53;5074524;28;20094;-61
2022/02/01 02:39:26;;;;;;;24.85;7.10;;;7.90;99.90;;;8.05;71.99;101996.22;5074425;28;20039;-61
2022/02/01 02:42:07;;;;;;;22.52;6.25;;;7.90;99.90;;;8.08;71.51;101984.84;5074379;28;20084;-61
2022/02/01 02:47:26;;;;;;;24.08;6.78;;;8.00;99.90;;;8.14;71.78;101999.06;5074306;28;20498;-61
2022/02/01 02:49:55;;;;;;;24.42;6.80;;;7.90;99.90;;;7.97;71.65;101957.38;5072389;28;20048;-62
2022/02/01 02:52:26;;;;;;;23.17;6.43;;;8.00;99.90;;;8.24;71.94;101992.28;5074328;28;20098;-61
2022/02/01 02:54:55;;;;;;;20.52;6.20;;;8.00;99.90;;;8.18;72.96;101989.50;5074280;28;20513;-61
2022/02/01 02:57:24;;;;;;;24.30;6.82;;;8.00;99.90;;;8.34;72.36;101978.50;5074029;28;20036;-61
2022/02/01 02:59:53;;;;;;;20.15;6.47;;;8.10;99.90;;;8.29;72.28;102003.84;5073938;28;20048;-62
2022/02/01 03:02:21;;;;;;;21.20;6.63;;;8.20;99.90;;;8.36;71.99;101970.59;5073931;28;20075;-62
2022/02/01 03:04:50;;;;;;;14.90;5.97;;;8.20;99.90;;;8.45;72.08;101962.88;5074150;28;20053;-61
2022/02/01 03:07:18;;;;;;;28.13;7.53;;;8.30;99.90;;;8.43;71.94;101947.03;5074291;28;20069;-62
2022/02/01 03:09:48;;;;;;;20.45;5.90;;;8.30;99.90;;;8.46;71.71;101938.31;5072607;28;20060;-62
2022/02/01 03:12:31;;;;;;;32.17;7.55;;;8.30;99.90;;;8.59;71.78;101916.63;5073613;28;20103;-61
2022/02/01 03:15:20;;;;;;;20.27;7.10;;;8.40;99.90;;;8.59;70.99;101916.63;5073750;28;20048;-61
2022/02/01 03:20:34;;;;;;;17.98;6.20;;;8.40;99.90;;;8.57;71.11;101900.78;5073517;28;20086;-61
2022/02/01 03:23:02;;;;;;;20.17;6.57;;;8.40;99.90;;;8.65;70.77;101879.81;5073475;28;20060;-61
2022/02/01 03:25:32;;;;;;;14.05;6.38;;;8.40;99.90;;;8.71;70.36;101874.66;5073394;28;20107;-62
2022/02/01 03:28:01;;;;;;;34.70;7.93;;;8.50;99.90;;;8.73;70.31;101888.78;5073771;28;20049;-61
2022/02/01 03:30:29;;;;;;;19.45;6.32;;;8.50;99.90;;;8.70;70.29;101878.16;5073724;28;20690;-62
2022/02/01 03:32:57;;;;;;;18.05;6.35;;;8.50;99.90;;;8.68;71.50;101874.59;5072049;28;20137;-61
2022/02/01 03:35:26;;;;;;;20.45;6.97;;;8.50;99.90;;;8.81;71.49;101882.78;5073134;28;20059;-62
2022/02/01 03:37:55;;;;;;;22.48;7.20;;;8.60;99.90;;;8.81;71.54;101880.13;5073760;28;20123;-61
2022/02/01 03:40:24;;;;;;;22.65;7.18;;;8.60;99.90;;;8.82;71.38;101894.22;5073052;28;20044;-61
2022/02/01 03:42:53;;;;;;;23.13;8.07;;;8.60;99.90;;;8.84;71.41;101890.75;5073591;28;20037;-61
2022/02/01 03:45:22;;;;;;;23.00;7.17;;;8.60;99.90;;;8.86;72.68;101894.31;5073295;28;20070;-61
2022/02/01 03:47:51;;;;;;;31.90;7.53;;;8.60;99.90;;;8.69;74.30;101892.22;5073114;28;20142;-62
2022/02/01 03:50:19;;;;;;;30.60;8.10;;;8.50;99.90;;;8.75;75.01;101898.47;5072945;28;20120;-61
2022/02/01 03:52:47;;;;;;;36.75;9.38;;;8.50;99.90;;;8.69;75.91;101876.38;5072720;28;20119;-62
2022/02/01 03:55:16;;;;;;;24.95;8.77;;;8.50;99.90;;;8.79;76.64;101894.16;5072725;28;20102;-61
2022/02/01 03:57:44;;;;;;;26.73;7.85;;;8.50;99.90;;;8.74;77.18;101890.53;5072991;28;20076;-61
2022/02/01 04:00:16;;;;;;;23.45;7.45;;;8.50;99.90;;;8.81;77.10;101881.88;5071451;28;20147;-62
2022/02/01 04:02:45;;;;;;;26.38;7.80;;;8.60;99.90;;;8.86;77.46;101874.94;5071879;28;20140;-61
2022/02/01 04:05:14;;;;;;;28.40;8.02;;;8.60;99.90;;;8.89;78.05;101875.00;5073033;28;20072;-62
2022/02/01 04:07:46;;;;;;;32.17;9.02;;;8.60;99.90;;;8.82;78.54;101852.00;5072400;28;20117;-62
2022/02/01 04:10:18;;;;;;;32.00;8.77;;;8.60;99.90;;;8.81;78.50;101858.13;5072441;28;20128;-61
2022/02/01 04:12:49;;;;;;;27.15;8.45;;;8.60;99.90;;;8.78;78.70;101851.06;5072524;28;20543;-61
2022/02/01 04:15:24;;;;;;;32.28;9.38;;;8.60;99.90;;;8.79;79.12;101859.84;5072948;28;20106;-61
2022/02/01 04:17:53;;;;;;;30.40;8.93;;;8.60;99.90;;;8.79;79.63;101837.00;5072508;28;20044;-61
2022/02/01 04:20:21;;;;;;;30.20;9.93;;;8.60;99.90;;;8.77;79.56;101838.72;5072258;28;20081;-61
2022/02/01 04:22:50;;;;;;;32.55;10.02;;;8.60;99.90;;;8.74;80.27;101828.13;5072164;28;20111;-62
2022/02/01 04:25:18;;;;;;;31.42;9.20;;;8.50;99.90;;;8.59;80.78;101834.88;5072216;28;20119;-61
2022/02/01 04:27:47;;;;;;;26.83;9.18;;;8.40;99.90;;;8.51;81.08;101833.81;5072313;28;20098;-61
2022/02/01 04:30:18;;;;;;;24.25;9.18;;;8.30;99.90;;;8.55;81.62;101835.66;5072681;28;20464;-61
2022/02/01 04:32:51;;;;;;;28.35;9.75;;;8.30;99.90;;;8.56;81.63;101829.53;5070653;28;20079;-61
2022/02/01 04:35:22;;;;;;;33.38;10.77;;;8.30;99.90;;;8.47;81.93;101821.44;5072119;28;20563;-61
2022/02/01 04:37:53;;;;;;;25.58;8.70;;;8.30;99.90;;;8.41;82.21;101813.41;5087756;28;20040;-62
2022/02/01 04:40:24;;;;;;;32.35;9.75;;;8.20;99.90;;;8.46;82.53;101812.63;5072007;28;20089;-61
2022/02/01 04:42:53;;;;;;;31.02;10.15;;;8.20;99.90;;;8.49;82.35;101806.53;5072251;28;20052;-61
2022/02/01 04:45:24;;;;;;;29.45;8.45;;;8.30;99.90;;;8.46;82.46;101810.00;5070776;28;20486;-61
2022/02/01 04:47:53;;;;;;;27.95;9.02;;;8.30;99.90;;;8.52;82.97;101809.22;5072203;28;20048;-61
2022/02/01 04:50:25;;;;;;;21.58;7.82;;;8.30;99.90;;;8.45;83.25;101805.59;5072125;28;20064;-61
2022/02/01 04:52:55;;;;;;;31.50;9.23;;;8.20;99.90;;;8.53;82.97;101797.84;5072054;28;20052;-61
2022/02/01 04:55:31;;;;;;;21.98;8.20;;;8.20;99.90;;;8.58;83.39;101797.06;5071827;28;20444;-61
2022/02/01 04:58:00;;;;;;;25.13;8.27;;;8.30;99.90;;;8.56;83.59;101790.88;5071897;28;20064;-61
2022/02/01 05:00:32;;;;;;;32.60;8.63;;;8.30;99.90;;;8.56;84.09;101784.69;5071917;28;20430;-61
2022/02/01 05:03:02;;;;;;;32.88;8.45;;;8.30;99.90;;;8.50;84.51;101779.31;5072367;28;20052;-61
2022/02/01 05:05:30;;;;;;;23.25;8.48;;;8.20;99.90;;;8.48;85.01;101754.69;5072230;28;20106;-62
2022/02/01 05:08:01;;;;;;;27.38;10.27;;;8.20;99.90;;;8.54;85.61;101744.22;5072109;28;20052;-61
2022/02/01 05:10:32;;;;;;;31.77;9.02;;;8.20;99.90;;;8.34;86.21;101720.16;5072062;28;20123;-58
2022/02/01 05:13:23;;;;;;;25.67;9.95;;;8.20;99.90;;;8.31;87.08;101721.84;5071544;28;20048;-60
2022/02/01 05:16:02;;;;;;;25.50;8.73;;;8.20;99.90;;;8.51;87.17;101734.53;5072384;28;20110;-59
2022/02/01 05:18:39;;;;;;;29.42;9.77;;;8.20;99.90;;;8.46;88.03;101737.97;5071751;28;20047;-60
2022/02/01 05:21:11;;;;;;;30.77;11.05;;;8.20;99.90;;;8.53;88.07;101730.19;5070176;28;20375;-59
2022/02/01 05:23:39;;;;;;;24.15;10.23;;;8.20;99.90;;;8.45;88.73;101723.88;5071442;28;20052;-60
2022/02/01 05:26:08;;;;;;;25.02;10.30;;;8.20;99.90;;;8.58;88.91;101714.41;5071457;28;20151;-59
2022/02/01 05:28:37;;;;;;;21.33;10.00;;;8.30;99.90;;;8.60;89.07;101705.69;5071450;28;20075;-59
2022/02/01 05:31:07;;;;;;;23.25;9.90;;;8.40;99.90;;;8.76;89.10;101726.19;5071508;28;20123;-59
2022/02/01 05:33:36;;;;;;;24.85;10.30;;;8.50;99.90;;;8.72;89.01;101715.53;5071413;28;20053;-60
2022/02/01 05:36:06;;;;;;;25.60;9.90;;;8.50;99.90;;;8.56;89.34;101710.88;5071673;28;20456;-59
2022/02/01 05:38:36;;;;;;;27.15;9.65;;;8.40;99.90;;;8.48;89.84;101687.00;5072055;28;20044;-59
2022/02/01 05:41:06;;;;;;;26.02;10.02;;;8.30;99.90;;;8.57;89.81;101695.09;5071700;28;20048;-59
2022/02/01 05:43:35;;;;;;;24.30;9.93;;;8.30;99.90;;;8.59;90.25;101716.22;5071699;28;20469;-59
2022/02/01 05:46:05;;;;;;;31.63;10.05;;;8.30;99.90;;;8.60;90.05;101692.50;5071906;28;20054;-59
2022/02/01 05:48:34;;;;;;;27.23;10.18;;;8.30;99.90;;;8.62;90.83;101692.50;5071409;28;20075;-59
2022/02/01 05:51:03;;;;;;;32.72;10.65;;;8.40;99.90;;;8.61;90.57;101667.03;5071578;28;20421;-59
2022/02/01 05:53:31;;;;;;;27.25;10.20;;;8.40;99.90;;;8.56;91.00;101671.31;5071327;28;20098;-59
2022/02/01 05:55:59;;;;;;;29.52;10.63;;;8.30;99.90;;;8.59;90.90;101681.94;5071201;28;20106;-59
2022/02/01 05:58:28;;;;;;;29.48;9.18;;;8.30;99.90;;;8.50;91.24;101680.00;5071413;28;20049;-59
2022/02/01 06:00:56;;;;;;;25.25;9.18;;;8.30;99.90;;;8.50;91.57;101668.56;5071042;28;20064;-59
2022/02/01 06:03:26;;;;;;;33.60;9.38;;;8.20;99.90;;;8.49;91.86;101672.97;5069901;28;20045;-59
2022/02/01 06:05:55;;;;;;;28.48;8.85;;;8.20;99.90;;;8.40;92.13;101671.94;5070994;28;20421;-59
2022/02/01 06:08:28;;;;;;;32.15;9.38;;;8.20;99.90;;;8.40;92.95;101679.84;5071181;28;20158;-59
2022/02/01 06:10:57;;;;;;;31.90;9.60;;;8.10;99.90;;;8.41;92.83;101660.53;5071054;28;20037;-59
2022/02/01 06:13:25;;;;;;;27.75;8.82;;;8.20;99.90;;;8.43;92.80;101650.91;5071167;28;20045;-59
2022/02/01 06:15:53;;;;;;;29.17;8.57;;;8.20;99.90;;;8.58;93.00;101659.03;5070890;28;20135;-59
2022/02/01 06:18:22;;;;;;;25.30;7.88;;;8.30;99.90;;;8.52;93.09;101653.66;5071380;28;20076;-59
2022/02/01 06:20:52;;;;;;;35.30;8.50;;;8.30;99.90;;;8.49;93.48;101641.34;5070651;28;20476;-59
2022/02/01 06:23:20;;;;;;;31.55;8.38;;;8.20;99.90;;;8.47;94.11;101634.25;5071395;28;20083;-59
2022/02/01 06:25:49;;;;;;;29.15;8.20;;;8.20;99.90;;;8.49;93.91;101640.44;5072188;28;20080;-60
2022/02/01 06:28:19;;;;;;;22.17;7.50;;;8.20;99.90;;;8.57;93.93;101644.09;5074612;28;20044;-59
2022/02/01 06:30:49;;;;;;;23.60;7.30;;;8.30;99.90;;;8.64;93.85;101627.50;5074332;28;20448;-59
2022/02/01 06:33:19;;;;;;;29.03;8.30;;;8.30;99.90;;;8.69;94.24;101629.34;5074484;28;20052;-60
2022/02/01 06:35:48;;;;;;;22.15;7.45;;;8.40;99.90;;;8.72;93.62;101625.88;5074205;28;20398;-60
2022/02/01 06:38:18;;;;;;;28.48;8.05;;;8.50;99.90;;;8.72;93.70;101623.25;5073008;28;20131;-61
2022/02/01 06:40:48;;;;;;;26.38;7.00;;;8.50;99.90;;;8.50;93.77;101584.22;5074722;28;20052;-60
2022/02/01 06:43:17;;;;;;;22.45;7.03;;;8.50;99.90;;;8.72;94.32;101639.06;5074079;28;20066;-61
2022/02/01 06:45:46;;;;;;;27.02;7.13;;;8.60;99.90;;;8.72;94.39;101637.31;5073112;28;20468;-59
2022/02/01 06:48:14;;;;;;;29.10;7.63;;;8.50;99.90;;;8.83;94.05;101614.63;5074388;28;20048;-59
2022/02/01 06:50:46;;;;;;;28.77;7.88;;;8.60;99.90;;;8.73;94.44;101609.22;5072728;28;20040;-59
2022/02/01 06:53:15;;;;;;;26.40;8.23;;;8.50;99.90;;;8.60;94.61;101568.56;5072689;28;20060;-59
2022/02/01 06:55:57;;;;;;;23.10;7.15;;;8.50;99.90;;;8.68;95.14;101597.69;5073958;28;20399;-60
2022/02/01 06:58:26;;;;;;;17.23;6.38;;;8.50;99.90;;;8.43;95.28;101538.44;5073822;28;20552;-60
2022/02/01 07:00:54;;;;;;;18.35;6.70;;;8.50;99.90;;;8.74;95.71;101582.84;5072785;28;20079;-59
2022/02/01 07:03:23;;;;;;;15.32;6.90;;;8.50;99.90;;;8.77;96.10;101588.16;5072618;28;20044;-59
2022/02/01 07:05:54;;;;;;;15.27;6.10;;;8.50;99.90;;;8.71;96.00;101592.47;5073619;28;20113;-60
2022/02/01 07:08:23;;;;;;;13.68;6.32;;;8.50;99.90;;;8.71;97.17;101593.34;5073672;28;20036;-59
2022/02/01 07:10:52;;;;;;;13.40;6.13;;;8.40;99.90;;;8.80;96.93;101596.13;5073791;28;20048;-60
2022/02/01 07:13:21;;;;;;;16.30;6.93;;;8.50;99.90;;;8.88;96.57;101583.03;5073741;28;20185;-60
2022/02/01 07:15:49;;;;;;;15.45;7.13;;;8.60;99.90;;;8.78;97.03;101589.03;5073431;28;20374;-59
2022/02/01 07:18:18;;;;;;;13.23;7.13;;;8.60;99.90;;;8.80;97.01;101580.31;5073438;28;20044;-59
2022/02/01 07:20:47;;;;;;;12.73;6.15;;;8.60;99.90;;;8.81;97.13;101579.41;5072992;28;20072;-60
2022/02/01 07:23:21;;;;;;;11.70;6.03;;;8.60;99.90;;;8.82;96.90;101569.75;5073378;28;20044;-59
2022/02/01 07:25:52;;;;;;;13.63;6.47;;;8.60;99.90;;;8.83;97.14;101585.59;5073851;28;20048;-59
2022/02/01 07:28:25;;;;;;;14.50;7.32;;;8.60;99.90;;;8.74;98.08;101558.22;5072128;28;20409;-59
2022/02/01 07:30:55;;;;;;;14.35;7.78;;;8.60;99.90;;;8.81;98.44;101565.34;5072195;28;20048;-59
2022/02/01 07:33:24;;;;;;;15.88;7.68;;;8.60;99.90;;;8.77;98.45;101547.69;5073478;28;20044;-59
2022/02/01 07:35:54;;;;;;;17.67;9.00;;;8.60;99.90;;;8.75;98.59;101538.91;5072843;28;20083;-60
2022/02/01 07:38:24;;;;;;;19.38;8.48;;;8.60;99.90;;;8.66;99.25;101525.56;5073581;28;20125;-59
2022/02/01 07:40:58;;;;;;;15.48;7.03;;;8.60;99.90;;;8.81;98.83;101550.41;5072009;28;20059;-60
2022/02/01 07:43:31;;;;;;;18.63;7.18;;;8.60;99.90;;;8.83;98.52;101543.41;5073078;28;20072;-59
2022/02/01 07:46:05;;;;;;;24.38;7.95;;;8.60;99.90;;;8.80;98.89;101521.38;5073282;28;20139;-60
2022/02/01 07:48:34;;;;;;;24.15;7.43;;;8.70;99.90;;;8.83;98.55;101516.13;5072958;28;20051;-60
2022/02/01 07:51:03;;;;;;;18.48;7.28;;;8.70;99.90;;;8.95;98.63;101542.69;5071907;28;20383;-59
2022/02/01 07:53:32;;;;;;;19.67;7.38;;;8.70;99.90;;;8.94;98.88;101520.66;5073427;28;20106;-60
2022/02/01 07:56:02;;;;;;;20.35;6.95;;;8.70;99.90;;;8.97;98.70;101536.56;5072857;28;20049;-59
2022/02/01 07:58:30;;;;;;;22.87;7.77;;;8.70;99.90;;;8.93;98.54;101534.75;5072872;28;20486;-59
2022/02/01 08:00:59;;;;;;;21.13;7.55;;;8.70;99.90;;;8.91;98.48;101520.66;5071823;28;20096;-59
2022/02/01 08:03:28;;;;;;;21.60;8.70;;;8.70;99.90;;;8.91;98.96;101525.03;5072745;28;20052;-59
2022/02/01 08:05:56;;;;;;;31.40;8.75;;;8.70;99.90;;;9.01;98.73;101537.47;5072767;28;20490;-60
2022/02/01 08:08:25;;;;;;;32.53;8.70;;;8.80;99.90;;;8.96;98.67;101518.94;5073028;28;20095;-59
2022/02/01 08:10:55;;;;;;;29.65;9.57;;;8.80;99.90;;;8.96;99.08;101518.06;5072479;28;20068;-59
2022/02/01 08:19:14;;;;;;;23.77;8.80;;;8.80;99.90;;;8.97;99.64;101520.72;5104796;27;1394853;-60
2022/02/01 08:21:54;;;;;;;26.92;9.93;;;8.80;99.90;;;8.89;100.00;101510.94;5111904;28;20347;-61
2022/02/01 08:24:22;;;;;;;;;;;8.70;99.90;;;8.89;100.00;101508.28;5130493;28;20050;-63
2022/02/01 08:26:51;;;;;;;26.63;9.60;;;8.70;99.90;;;8.93;100.00;101512.75;5129906;28;19919;-59
2022/02/01 08:29:19;;;;;;;24.02;8.45;;;8.70;99.90;;;8.96;100.00;101494.34;5129932;28;20093;-62
2022/02/01 08:31:50;;;;;;;24.73;8.07;;;8.70;99.90;;;8.91;100.00;101485.47;5130078;28;20373;-59
2022/02/01 08:34:20;;;;;;;25.60;8.40;;;8.70;99.90;;;8.95;100.00;101490.81;5129941;28;20455;-59
2022/02/01 08:36:49;;;;;;;19.65;7.65;;;8.70;99.90;;;9.00;100.00;101475.91;5129780;28;20050;-60
2022/02/01 08:39:18;;;;;;;22.20;7.72;;;8.80;99.90;;;8.92;100.00;101479.34;5111506;28;20116;-59
2022/02/01 08:41:46;;;;;;;24.08;8.70;;;8.80;99.90;;;8.86;100.00;101479.25;5130045;28;20059;-59
2022/02/01 08:44:16;;;;;;;26.98;8.95;;;8.70;99.90;;;8.89;100.00;101442.34;5129790;28;20456;-60
2022/02/01 08:46:45;;;;;;;22.38;8.25;;;8.70;99.90;;;9.03;100.00;101456.59;5130435;28;20105;-60
2022/02/01 08:49:14;;;;;;;24.25;7.97;;;8.70;99.90;;;9.06;100.00;101448.69;5129591;28;20524;-60
2022/02/01 08:51:45;;;;;;;18.15;7.80;;;8.80;99.90;;;9.00;100.00;101441.59;5129417;28;20354;-60
2022/02/01 08:54:19;;;;;;;25.98;7.97;;;8.80;99.90;;;8.92;100.00;101434.50;5111236;28;20043;-61
2022/02/01 08:59:34;;;;;;;24.27;9.27;;;8.70;99.90;;;8.97;100.00;101438.03;5129373;28;20064;-61
2022/02/01 09:02:03;;;;;;;26.75;8.75;;;8.70;99.90;;;9.04;100.00;101421.41;5129024;28;20138;-60
2022/02/01 09:04:32;;;;;;;24.50;9.27;;;8.80;99.90;;;9.12;100.00;101427.66;5129046;28;20442;-59
2022/02/01 09:07:04;;;;;;;24.60;9.95;;;8.80;99.90;;;9.14;100.00;101428.56;5128952;28;20070;-60
2022/02/01 09:09:33;;;;;;;27.33;9.93;;;8.90;99.90;;;9.17;100.00;101422.44;5129363;28;20043;-60
2022/02/01 09:12:02;;;;;;;28.20;9.93;;;8.90;99.90;;;9.18;100.00;101418.91;5110448;28;20142;-60
2022/02/01 09:14:31;;;;;;;33.65;12.90;;;8.90;99.90;;;9.13;100.00;101421.53;5128698;28;20047;-60
2022/02/01 09:17:00;;;;;;;34.08;11.88;;;8.90;99.90;;;9.13;100.00;101410.97;5129001;28;20122;-60
2022/02/01 09:19:30;;;;;;;28.65;11.90;;;8.90;99.90;;;9.02;100.00;101375.66;5129109;28;20055;-60
2022/02/01 09:21:58;;;;;;;36.10;12.80;;;8.90;99.90;;;9.11;100.00;101386.31;5128618;28;20065;-60
2022/02/01 09:24:29;;;;;;;38.22;11.88;;;8.90;99.90;;;9.02;100.00;101371.25;5128992;28;20428;-60
2022/02/01 09:26:58;;;;;;;29.25;11.45;;;8.90;99.90;;;9.11;100.00;101362.56;5128913;28;20054;-60
2022/02/01 09:29:26;;;;;;;38.40;11.18;;;8.90;99.90;;;9.11;100.00;101349.38;5120470;28;20067;-59
2022/02/01 09:31:55;;;;;;;41.92;11.63;;;8.90;99.90;;;9.09;100.00;101356.38;5114911;28;20039;-60
2022/02/01 09:34:24;;;;;;;39.75;10.68;;;8.90;99.90;;;9.13;100.00;101352.00;5114709;28;20131;-60
2022/02/01 09:36:55;;;;;;;36.13;11.32;;;8.90;99.90;;;9.15;100.00;101345.88;5114979;28;20067;-60
2022/02/01 09:39:26;;;;;;;37.20;11.35;;;9.00;99.90;;;9.24;100.00;101323.94;5114670;28;20539;-60
2022/02/01 09:41:56;;;;;;;36.10;12.15;;;9.10;99.90;;;9.16;100.00;101328.28;5114714;28;20063;-60
2022/02/01 09:44:25;;;;;;;;;;;9.00;99.90;;;9.25;100.00;101339.81;5115339;28;20089;-60
2022/02/01 09:46:54;;;;;;;37.88;10.77;;;9.00;99.90;;;9.34;100.00;101336.34;5114511;28;19969;-61
2022/02/01 09:49:25;;;;;;;30.60;11.73;;;9.10;99.90;;;9.36;100.00;101330.22;5115077;28;20047;-59
2022/02/01 09:51:57;;;;;;;;;;;9.20;99.90;;;9.20;100.00;101319.50;5114933;28;20050;-60
2022/02/01 09:54:28;;;;;;;26.98;12.10;;;9.10;99.90;;;9.43;100.00;101328.50;5115044;28;19920;-60
2022/02/01 09:57:04;;;;;;;32.83;13.25;;;9.20;99.90;;;9.43;100.00;101320.59;5114917;28;20473;-60
2022/02/01 09:59:35;;;;;;;29.70;13.68;;;9.20;99.90;;;9.43;100.00;101318.84;5114344;28;20044;-60
2022/02/01 10:02:08;;;;;;;32.20;16.23;;;9.20;99.90;;;9.34;100.00;101299.41;5114435;28;20432;-59
2022/02/01 10:04:38;;;;;;;36.85;15.02;;;9.20;99.90;;;9.33;100.00;101302.94;5096127;28;20051;-60
2022/02/01 10:07:09;;;;;;;37.53;15.13;;;9.30;99.90;;;9.44;100.00;101328.53;5095998;28;20076;-60
2022/02/01 10:09:53;;;;;;;39.17;13.70;;;9.20;99.90;;;9.41;100.00;101319.69;5114420;28;20444;-60
2022/02/01 10:12:25;;;;;;;45.33;13.80;;;9.30;99.90;;;9.42;100.00;101334.66;5114096;28;20051;-60
2022/02/01 10:14:57;;;;;;;35.30;12.27;;;9.30;99.90;;;9.43;100.00;101334.69;5113971;28;20051;-60
2022/02/01 10:17:29;;;;;;;38.20;12.35;;;9.30;99.90;;;9.47;100.00;101325.00;5095730;28;20693;-60
2022/02/01 10:19:57;;;;;;;39.10;11.60;;;9.30;99.90;;;9.48;100.00;101327.69;5113790;28;20097;-60
2022/02/01 10:22:37;;;;;;;40.00;12.65;;;9.30;99.90;;;9.47;100.00;101323.25;5113791;28;20497;-60
2022/02/01 10:25:20;;;;;;;34.72;10.52;;;9.30;99.90;;;9.53;100.00;101328.59;5114430;28;20546;-60
2022/02/01 10:27:58;;;;;;;39.50;10.98;;;9.30;99.90;;;9.49;100.00;101325.91;5113798;28;20397;-60
2022/02/01 10:30:50;;;;;;;44.42;10.43;;;9.30;99.90;;;9.51;100.00;101332.09;5113817;28;20047;-60
2022/02/01 10:33:55;;;;;;;31.98;10.10;;;9.30;99.90;;;9.56;100.00;101323.31;5095676;28;20108;-60
2022/02/01 10:36:35;;;;;;;39.38;11.45;;;9.40;99.90;;;9.61;100.00;101308.41;5114213;28;20092;-60
2022/02/01 10:39:17;;;;;;;40.13;10.65;;;9.40;99.90;;;9.63;100.00;101318.97;5113792;28;20051;-60
2022/02/01 10:41:57;;;;;;;36.85;10.45;;;9.50;99.90;;;9.56;100.00;101318.03;5112727;28;20043;-60
2022/02/01 10:44:39;;;;;;;37.92;10.23;;;9.40;99.90;;;9.62;100.00;101306.66;5113460;28;20096;-59
2022/02/01 10:47:09;;;;;;;46.30;9.70;;;9.50;99.90;;;9.62;100.00;101339.22;5113643;28;20101;-59
2022/02/01 10:50:03;;;;;;;37.30;9.98;;;9.50;99.90;;;9.53;100.00;101344.44;5095404;28;20497;-59
2022/02/01 10:52:36;;;;;;;38.70;9.95;;;9.40;99.90;;;9.66;100.00;101337.47;5113974;28;20040;-59
2022/02/01 10:55:07;;;;;;;29.88;9.73;;;9.50;99.90;;;9.71;100.00;101331.38;5113364;28;20454;-61
2022/02/01 10:57:36;;;;;;;30.33;9.13;;;9.50;99.90;;;9.70;99.70;101326.06;5113864;28;20043;-60
2022/02/01 11:00:10;;;;;;;26.02;8.75;;;9.60;99.90;;;9.81;99.71;101322.59;5095409;28;20397;-60
2022/02/01 11:02:43;;;;;;;28.40;8.00;;;9.60;99.90;;;9.84;99.27;101320.00;5113335;28;20454;-60
2022/02/01 11:05:14;;;;;;;26.65;8.20;;;9.70;99.90;;;9.87;98.90;101304.16;5113423;28;20120;-60
2022/02/01 11:08:03;;;;;;;26.80;8.73;;;9.70;99.90;;;9.81;98.41;101306.75;5113340;28;20043;-60
2022/02/01 11:10:32;;;;;;;29.52;8.98;;;9.70;99.90;;;9.91;97.94;101327.06;5094908;28;20048;-60
2022/02/01 11:13:10;;;;;;;28.67;8.65;;;9.70;99.90;;;9.74;97.92;101319.91;5113044;28;20477;-60
2022/02/01 11:15:40;;;;;;;30.08;9.27;;;9.70;99.90;;;9.92;97.77;101310.34;5113114;28;20404;-60
2022/02/01 11:18:13;;;;;;;;;;;9.80;99.90;;;9.96;97.49;101308.59;5113336;28;20051;-60
2022/02/01 11:20:47;;;;;;;31.98;8.35;;;9.80;99.90;;;10.08;97.20;101300.75;5113252;28;19976;-62
2022/02/01 11:23:20;;;;;;;29.13;8.85;;;9.90;99.90;;;10.04;97.22;101298.97;5112804;28;20097;-61
2022/02/01 11:25:55;;;;;;;25.00;8.40;;;9.90;99.90;;;10.04;97.25;101304.25;5112744;28;20058;-61
2022/02/01 11:28:45;;;;;;;23.38;7.45;;;9.90;99.90;;;9.81;96.93;101256.56;5094713;28;20382;-61
2022/02/01 11:31:16;;;;;;;33.17;9.35;;;9.90;99.90;;;9.97;97.25;101283.94;5094564;28;20043;-61
2022/02/01 11:33:50;;;;;;;32.97;9.40;;;9.90;99.90;;;9.97;97.26;101295.41;5112616;28;20054;-61
2022/02/01 11:36:19;;;;;;;32.42;8.70;;;9.80;99.90;;;10.03;97.45;101300.72;5112936;28;20085;-61
2022/02/01 11:38:53;;;;;;;27.95;8.18;;;9.90;99.90;;;10.08;97.41;101299.84;5112348;28;20122;-61
2022/02/01 11:41:33;;;;;;;31.95;8.27;;;9.90;99.90;;;10.16;97.40;101269.97;5112667;28;20100;-60